Time;durP1;ratioP1;P1;durP2;ratioP2;P2;SDS_P1;SDS_P2;PMS_P1;PMS_P2;Temp;Humidity;BMP_temperature;BMP_pressure;BME280_temperature;BME280_humidity;BME280_pressure;Samples;Min_cycle;Max_cycle;Signal;HPM_P1;HPM_P2
2022/07/08 00:02:12;;;;;;;1999.90;999.90;;;15.60;99.90;;;;;;5072988;28;20222;-62
2022/07/08 00:04:40;;;;;;;1999.90;999.90;;;15.60;99.90;;;;;;5072853;28;20191;-62
2022/07/08 00:07:07;;;;;;;1999.90;999.90;;;15.70;99.90;;;;;;5072907;28;20206;-61
2022/07/08 00:09:34;;;;;;;1999.90;999.90;;;15.70;99.90;;;;;;5072415;28;20708;-62
2022/07/08 00:12:01;;;;;;;1999.90;999.90;;;15.70;99.90;;;;;;5072895;28;20195;-63
2022/07/08 00:14:28;;;;;;;1999.90;999.90;;;15.70;99.90;;;;;;5072663;28;20209;-62
2022/07/08 00:16:57;;;;;;;1999.90;999.90;;;15.70;99.90;;;;;;5072786;28;20191;-62
2022/07/08 00:19:24;;;;;;;1999.90;999.90;;;15.70;99.90;;;;;;5072538;28;20203;-62
2022/07/08 00:21:51;;;;;;;1999.90;999.90;;;15.60;99.90;;;;;;5072409;28;20217;-63
2022/07/08 00:24:19;;;;;;;1999.90;999.90;;;15.60;99.90;;;;;;5072707;28;20213;-63
2022/07/08 00:26:46;;;;;;;1999.90;999.90;;;15.70;99.90;;;;;;5072343;28;20221;-63
2022/07/08 00:29:13;;;;;;;1999.90;999.90;;;15.60;99.90;;;;;;5072332;28;20623;-62
2022/07/08 00:31:41;;;;;;;1999.90;999.90;;;15.60;99.90;;;;;;5072644;28;20210;-61
2022/07/08 00:34:09;;;;;;;1999.90;999.90;;;15.60;99.90;;;;;;5072646;28;20214;-61
2022/07/08 00:36:36;;;;;;;1999.90;999.90;;;15.60;99.90;;;;;;5072591;28;20187;-62
2022/07/08 00:39:04;;;;;;;1999.90;999.90;;;15.50;99.90;;;;;;5072196;28;20655;-62
2022/07/08 00:41:31;;;;;;;1999.90;999.90;;;15.50;99.90;;;;;;5072681;28;20203;-62
2022/07/08 00:43:58;;;;;;;1999.90;999.90;;;15.50;99.90;;;;;;5072736;28;20213;-62
2022/07/08 00:46:25;;;;;;;1999.90;999.90;;;15.50;99.90;;;;;;5072334;28;20202;-62
2022/07/08 00:48:52;;;;;;;1999.90;999.90;;;15.50;99.90;;;;;;5072269;28;20668;-62
2022/07/08 00:51:21;;;;;;;1999.90;999.90;;;15.50;99.90;;;;;;5072107;28;20697;-62
2022/07/08 00:53:52;;;;;;;1999.90;999.90;;;15.40;99.90;;;;;;5072126;28;20597;-62
2022/07/08 00:56:20;;;;;;;1999.90;999.90;;;15.40;99.90;;;;;;5072238;28;20600;-62
2022/07/08 00:58:48;;;;;;;1999.90;999.90;;;15.40;99.90;;;;;;5072317;28;20205;-61
2022/07/08 01:01:16;;;;;;;1999.90;999.90;;;15.40;99.90;;;;;;5072180;28;20203;-62
2022/07/08 01:03:46;;;;;;;1999.90;999.90;;;15.40;99.90;;;;;;5072637;28;20202;-61
2022/07/08 01:06:13;;;;;;;1999.90;999.90;;;15.30;99.90;;;;;;5072030;28;20217;-63
2022/07/08 01:08:43;;;;;;;1999.90;999.90;;;15.30;99.90;;;;;;5072302;28;20195;-63
2022/07/08 01:11:10;;;;;;;1999.90;999.90;;;15.30;99.90;;;;;;5071897;28;20203;-62
2022/07/08 01:13:39;;;;;;;1999.90;999.90;;;15.20;99.90;;;;;;5072135;28;20652;-62
2022/07/08 01:16:07;;;;;;;1999.90;999.90;;;15.10;99.90;;;;;;5071742;28;20234;-62
2022/07/08 01:18:34;;;;;;;1999.90;999.90;;;15.20;99.90;;;;;;5071809;28;20202;-62
2022/07/08 01:21:04;;;;;;;1999.90;999.90;;;15.10;99.90;;;;;;5072139;28;20206;-62
2022/07/08 01:23:31;;;;;;;1999.90;999.90;;;15.00;99.90;;;;;;5071448;28;20649;-62
2022/07/08 01:26:00;;;;;;;1999.90;999.90;;;15.00;99.90;;;;;;5071764;28;20198;-62
2022/07/08 01:28:27;;;;;;;1999.90;999.90;;;15.00;99.90;;;;;;5068290;28;20214;-62
2022/07/08 01:30:54;;;;;;;1999.90;999.90;;;15.00;99.90;;;;;;5071539;28;20209;-62
2022/07/08 01:33:21;;;;;;;1999.90;999.90;;;15.00;99.90;;;;;;5070963;28;20192;-62
2022/07/08 01:35:49;;;;;;;1999.90;999.90;;;15.00;99.90;;;;;;5071568;28;20199;-62
2022/07/08 01:38:17;;;;;;;1999.90;999.90;;;14.90;99.90;;;;;;5071266;28;20232;-62
2022/07/08 01:40:44;;;;;;;1999.90;999.90;;;14.80;99.90;;;;;;5069173;28;20204;-62
2022/07/08 01:43:11;;;;;;;1999.90;999.90;;;14.80;99.90;;;;;;5075314;28;20201;-62
2022/07/08 01:45:38;;;;;;;1999.90;999.90;;;14.80;99.90;;;;;;5075276;28;20768;-62
2022/07/08 01:48:06;;;;;;;1999.90;999.90;;;14.80;99.90;;;;;;5075567;28;20225;-62
2022/07/08 01:50:33;;;;;;;1999.90;999.90;;;14.80;99.90;;;;;;5075224;28;20221;-62
2022/07/08 01:53:00;;;;;;;1999.90;999.90;;;14.80;99.90;;;;;;5075548;28;20203;-63
2022/07/08 01:55:28;;;;;;;1999.90;999.90;;;14.80;99.90;;;;;;5075244;28;20199;-63
2022/07/08 01:57:55;;;;;;;1999.90;999.90;;;14.80;99.90;;;;;;5074833;28;20195;-62
2022/07/08 02:00:23;;;;;;;1999.90;999.90;;;14.80;99.90;;;;;;5075381;28;20539;-63
2022/07/08 02:02:50;;;;;;;1999.90;999.90;;;14.80;99.90;;;;;;5075258;28;20199;-62
2022/07/08 02:05:18;;;;;;;1999.90;999.90;;;14.80;99.90;;;;;;5075200;28;20287;-62
2022/07/08 02:07:45;;;;;;;1999.90;999.90;;;14.90;99.90;;;;;;5075241;28;20215;-62
2022/07/08 02:10:12;;;;;;;1999.90;999.90;;;14.80;99.90;;;;;;5075253;28;20195;-62
2022/07/08 02:12:39;;;;;;;1999.90;999.90;;;14.80;99.90;;;;;;5074781;28;20749;-62
2022/07/08 02:15:09;;;;;;;1999.90;999.90;;;14.80;99.90;;;;;;5074582;28;20227;-62
2022/07/08 02:17:37;;;;;;;1999.90;999.90;;;14.70;99.90;;;;;;5075215;28;20198;-63
2022/07/08 02:20:06;;;;;;;1999.90;999.90;;;14.70;99.90;;;;;;5075058;28;20215;-61
2022/07/08 02:22:34;;;;;;;1999.90;999.90;;;14.60;99.90;;;;;;5074674;28;20570;-62
2022/07/08 02:25:01;;;;;;;1999.90;999.90;;;14.60;99.90;;;;;;5074705;28;20201;-62
2022/07/08 02:27:28;;;;;;;1999.90;999.90;;;14.60;99.90;;;;;;5074917;28;20224;-62
2022/07/08 02:29:56;;;;;;;1999.90;999.90;;;14.50;99.90;;;;;;5074947;28;20198;-63
2022/07/08 02:32:23;;;;;;;1999.90;999.90;;;14.50;99.90;;;;;;5074906;28;20205;-62
2022/07/08 02:34:50;;;;;;;1999.90;999.90;;;14.50;99.90;;;;;;5074783;28;20199;-62
2022/07/08 02:37:18;;;;;;;1999.90;999.90;;;14.40;99.90;;;;;;5074735;28;20194;-61
2022/07/08 02:39:45;;;;;;;1999.90;999.90;;;14.40;99.90;;;;;;5074514;28;20209;-62
2022/07/08 02:42:12;;;;;;;1999.90;999.90;;;14.40;99.90;;;;;;5074645;28;20191;-63
2022/07/08 02:44:39;;;;;;;1999.90;999.90;;;14.40;99.90;;;;;;5074132;28;20682;-61
2022/07/08 02:47:08;;;;;;;1999.90;999.90;;;14.30;99.90;;;;;;5074422;28;20209;-62
2022/07/08 02:49:36;;;;;;;1999.90;999.90;;;14.30;99.90;;;;;;5074411;28;20206;-62
2022/07/08 02:52:03;;;;;;;1999.90;999.90;;;14.30;99.90;;;;;;5073514;28;20202;-62
2022/07/08 02:54:30;;;;;;;1999.90;999.90;;;14.30;99.90;;;;;;5074064;28;20191;-62
2022/07/08 02:56:57;;;;;;;1999.90;999.90;;;14.30;99.90;;;;;;5074334;28;20558;-62
2022/07/08 02:59:24;;;;;;;1999.90;999.90;;;14.30;99.90;;;;;;5074355;28;20207;-62
2022/07/08 03:01:51;;;;;;;1999.90;999.90;;;14.20;99.90;;;;;;5073933;28;20676;-62
2022/07/08 03:04:20;;;;;;;1999.90;999.90;;;14.20;99.90;;;;;;5074402;28;20201;-61
2022/07/08 03:06:47;;;;;;;1999.90;999.90;;;14.10;99.90;;;;;;5073751;28;20198;-62
2022/07/08 03:09:14;;;;;;;1999.90;999.90;;;14.00;99.90;;;;;;5073568;28;20225;-62
2022/07/08 03:11:41;;;;;;;1999.90;999.90;;;14.00;99.90;;;;;;5073756;28;20566;-61
2022/07/08 03:14:08;;;;;;;1999.90;999.90;;;13.90;99.90;;;;;;5073755;28;20664;-61
2022/07/08 03:16:36;;;;;;;1999.90;999.90;;;13.90;99.90;;;;;;5073615;28;20237;-61
2022/07/08 03:19:03;;;;;;;1999.90;999.90;;;13.90;99.90;;;;;;5074597;28;20575;-61
2022/07/08 03:21:32;;;;;;;1999.90;999.90;;;13.80;99.90;;;;;;5074352;28;20203;-61
2022/07/08 03:23:59;;;;;;;1999.90;999.90;;;13.80;99.90;;;;;;5074278;28;20207;-61
2022/07/08 03:26:26;;;;;;;1999.90;999.90;;;13.80;99.90;;;;;;5074033;28;20736;-61
2022/07/08 03:28:53;;;;;;;1999.90;999.90;;;13.80;99.90;;;;;;5074884;28;20222;-59
2022/07/08 03:31:20;;;;;;;1999.90;999.90;;;13.80;99.90;;;;;;5073812;28;20199;-58
2022/07/08 03:33:48;;;;;;;1999.90;999.90;;;13.90;99.90;;;;;;5073651;28;20698;-57
2022/07/08 03:36:18;;;;;;;1999.90;999.90;;;13.90;99.90;;;;;;5074771;28;20172;-58
2022/07/08 03:38:47;;;;;;;1999.90;999.90;;;13.90;99.90;;;;;;5073522;28;20191;-59
2022/07/08 03:41:23;;;;;;;1999.90;999.90;;;13.90;99.90;;;;;;5074007;28;20243;-58
2022/07/08 03:43:51;;;;;;;1999.90;999.90;;;13.90;99.90;;;;;;5074259;28;20186;-60
2022/07/08 03:46:19;;;;;;;1999.90;999.90;;;13.90;99.90;;;;;;5073354;28;20568;-58
2022/07/08 03:48:46;;;;;;;1999.90;999.90;;;13.80;99.90;;;;;;5073638;28;20680;-58
2022/07/08 03:51:14;;;;;;;1999.90;999.90;;;13.80;99.90;;;;;;5073074;28;20209;-60
2022/07/08 03:53:41;;;;;;;1999.90;999.90;;;13.80;99.90;;;;;;5073629;28;20718;-60
2022/07/08 03:56:10;;;;;;;1999.90;999.90;;;13.70;99.90;;;;;;5073751;28;20210;-61
2022/07/08 03:58:38;;;;;;;1999.90;999.90;;;13.70;99.90;;;;;;5073837;28;20187;-60
2022/07/08 04:01:06;;;;;;;1999.90;999.90;;;13.70;99.90;;;;;;5073520;28;20656;-61
2022/07/08 04:03:33;;;;;;;1999.90;999.90;;;13.60;99.90;;;;;;5073092;28;20201;-60
2022/07/08 04:06:00;;;;;;;1999.90;999.90;;;13.60;99.90;;;;;;5073139;28;20296;-61
2022/07/08 04:08:27;;;;;;;1999.90;999.90;;;13.60;99.90;;;;;;5072769;28;20581;-61
2022/07/08 04:10:54;;;;;;;1999.90;999.90;;;13.60;99.90;;;;;;5072853;28;20213;-61
2022/07/08 04:13:27;;;;;;;1999.90;999.90;;;13.60;99.90;;;;;;5072585;28;20660;-60
2022/07/08 04:15:54;;;;;;;1999.90;999.90;;;13.60;99.90;;;;;;5072654;28;20640;-60
2022/07/08 04:18:21;;;;;;;1999.90;999.90;;;13.60;99.90;;;;;;5073114;28;20187;-61
2022/07/08 04:20:48;;;;;;;1999.90;999.90;;;13.60;99.90;;;;;;5072648;28;20198;-60
2022/07/08 04:23:15;;;;;;;1999.90;999.90;;;13.60;99.90;;;;;;5073170;28;20207;-60
2022/07/08 04:25:42;;;;;;;1999.90;999.90;;;13.60;99.90;;;;;;5073637;28;20199;-61
2022/07/08 04:28:09;;;;;;;1999.90;999.90;;;13.60;99.90;;;;;;5072852;28;20210;-61
2022/07/08 04:30:38;;;;;;;1999.90;999.90;;;13.70;99.90;;;;;;5072505;28;20682;-61
2022/07/08 04:33:05;;;;;;;1999.90;999.90;;;13.70;99.90;;;;;;5072543;28;20569;-60
2022/07/08 04:35:32;;;;;;;1999.90;999.90;;;13.70;99.90;;;;;;5072724;28;20542;-61
2022/07/08 04:37:59;;;;;;;1999.90;999.90;;;13.80;99.90;;;;;;5073103;28;20197;-62
2022/07/08 04:40:27;;;;;;;1999.90;999.90;;;13.90;99.90;;;;;;5073019;28;20187;-64
2022/07/08 04:42:54;;;;;;;1999.90;999.90;;;14.00;99.90;;;;;;5073267;28;20660;-62
2022/07/08 04:45:21;;;;;;;1999.90;999.90;;;14.10;99.90;;;;;;5073080;28;20194;-62
2022/07/08 04:47:50;;;;;;;1999.90;999.90;;;14.10;99.90;;;;;;5073148;28;20199;-62
2022/07/08 04:50:17;;;;;;;1999.90;999.90;;;14.10;99.90;;;;;;5072726;28;20593;-62
2022/07/08 04:52:45;;;;;;;1999.90;999.90;;;14.10;99.90;;;;;;5072382;28;20224;-62
2022/07/08 04:55:27;;;;;;;1999.90;999.90;;;14.20;99.90;;;;;;5073136;28;20217;-63
2022/07/08 04:57:55;;;;;;;1999.90;999.90;;;14.20;99.90;;;;;;5072621;28;20183;-62
2022/07/08 05:00:22;;;;;;;1999.90;999.90;;;14.30;99.90;;;;;;5072871;28;20202;-62
2022/07/08 05:02:51;;;;;;;1999.90;999.90;;;14.40;99.90;;;;;;5073325;28;20201;-64
2022/07/08 05:05:19;;;;;;;1999.90;999.90;;;14.40;99.90;;;;;;5073993;28;20203;-61
2022/07/08 05:07:47;;;;;;;1999.90;999.90;;;14.40;99.90;;;;;;5072850;28;20709;-61
2022/07/08 05:10:15;;;;;;;1999.90;999.90;;;14.50;99.90;;;;;;5073640;28;20195;-62
2022/07/08 05:12:43;;;;;;;1999.90;999.90;;;14.60;99.90;;;;;;5072257;28;20210;-62
2022/07/08 05:15:11;;;;;;;1999.90;999.90;;;14.70;99.90;;;;;;5072279;28;20275;-62
2022/07/08 05:17:38;;;;;;;1999.90;999.90;;;14.90;99.90;;;;;;5076766;28;20667;-62
2022/07/08 05:20:09;;;;;;;1999.90;999.90;;;15.20;99.90;;;;;;5076020;28;20376;-62
2022/07/08 05:22:36;;;;;;;1999.90;999.90;;;15.60;99.90;;;;;;5076387;28;20199;-62
2022/07/08 05:25:03;;;;;;;1999.90;999.90;;;16.00;99.90;;;;;;5076667;28;20194;-62
2022/07/08 05:27:30;;;;;;;1999.90;999.90;;;16.60;99.90;;;;;;5076158;28;20220;-62
2022/07/08 05:29:58;;;;;;;1999.90;999.90;;;17.10;99.90;;;;;;5075757;28;20221;-62
2022/07/08 05:32:25;;;;;;;1999.90;999.90;;;17.50;99.90;;;;;;5076138;28;20205;-62
2022/07/08 05:34:52;;;;;;;1999.90;999.90;;;18.20;99.90;;;;;;5075525;28;20194;-62
2022/07/08 05:37:21;;;;;;;1999.90;999.90;;;18.50;99.90;;;;;;5075852;28;20578;-60
2022/07/08 05:39:48;;;;;;;1999.90;999.90;;;18.80;99.90;;;;;;5075656;28;20191;-60
2022/07/08 05:42:15;;;;;;;1999.90;999.90;;;19.20;99.90;;;;;;5075844;28;20199;-60
2022/07/08 05:44:42;;;;;;;1999.90;999.90;;;19.00;99.90;;;;;;5075647;28;20201;-60
2022/07/08 05:47:09;;;;;;;1999.90;999.90;;;19.20;99.90;;;;;;5075457;28;20199;-61
2022/07/08 05:49:37;;;;;;;1999.90;999.90;;;19.40;99.90;;;;;;5075151;28;20700;-60
2022/07/08 05:52:05;;;;;;;1999.90;999.90;;;19.10;99.90;;;;;;5075541;28;20206;-61
2022/07/08 05:54:37;;;;;;;1999.90;999.90;;;19.50;57.60;;;;;;5075452;28;20198;-60
2022/07/08 05:57:04;;;;;;;1999.90;999.90;;;19.80;1.00;;;;;;5075204;28;20662;-61
2022/07/08 05:59:32;;;;;;;1999.90;999.90;;;19.80;23.70;;;;;;5075064;28;20195;-60
2022/07/08 06:01:59;;;;;;;1999.90;999.90;;;19.90;1.00;;;;;;5075204;28;20256;-61
2022/07/08 06:04:26;;;;;;;1999.90;999.90;;;19.60;99.90;;;;;;5074772;28;20750;-61
2022/07/08 06:06:53;;;;;;;1999.90;999.90;;;19.50;99.90;;;;;;5074926;28;20225;-60
2022/07/08 06:09:20;;;;;;;1999.90;999.90;;;19.90;99.90;;;;;;5073653;28;20248;-60
2022/07/08 06:11:48;;;;;;;1999.90;999.90;;;20.20;99.90;;;;;;5074813;28;20194;-60
2022/07/08 06:14:16;;;;;;;1999.90;999.90;;;20.70;1.00;;;;;;5074877;28;20199;-60
2022/07/08 06:16:43;;;;;;;1999.90;999.90;;;21.20;1.00;;;;;;5074675;28;20276;-60
2022/07/08 06:19:10;;;;;;;1999.90;999.90;;;21.70;1.00;;;;;;5074844;28;20191;-60
2022/07/08 06:21:37;;;;;;;1999.90;999.90;;;21.20;1.00;;;;;;5074891;28;20205;-60
2022/07/08 06:24:05;;;;;;;1999.90;999.90;;;21.00;1.00;;;;;;5074698;28;20762;-60
2022/07/08 06:26:32;;;;;;;1999.90;999.90;;;21.10;99.90;;;;;;5074652;28;20194;-60
2022/07/08 06:29:00;;;;;;;1999.90;999.90;;;21.10;1.00;;;;;;5074617;28;20210;-60
2022/07/08 06:31:27;;;;;;;1999.90;999.90;;;21.20;1.00;;;;;;5074687;28;20658;-60
2022/07/08 06:33:57;;;;;;;1999.90;999.90;;;21.50;1.00;;;;;;5074826;28;20195;-60
2022/07/08 06:36:24;;;;;;;1999.90;999.90;;;21.40;99.90;;;;;;5074434;28;20669;-60
2022/07/08 06:38:52;;;;;;;1999.90;999.90;;;22.00;1.00;;;;;;5074255;28;20207;-60
2022/07/08 06:41:19;;;;;;;1999.90;999.90;;;22.00;1.00;;;;;;5074651;28;20201;-61
2022/07/08 06:43:46;;;;;;;1999.90;999.90;;;22.00;99.90;;;;;;5074276;28;20194;-60
2022/07/08 06:46:15;;;;;;;1999.90;999.90;;;21.60;99.90;;;;;;5073718;28;20202;-60
2022/07/08 06:48:42;;;;;;;1999.90;999.90;;;21.60;99.90;;;;;;5073908;28;20246;-60
2022/07/08 06:51:10;;;;;;;1999.90;999.90;;;22.00;1.00;;;;;;5074350;28;20190;-61
2022/07/08 06:56:21;;;;;;;1999.90;999.90;;;22.00;1.00;;;;;;5074035;28;20546;-61
2022/07/08 06:58:48;;;;;;;1999.90;999.90;;;21.80;1.00;;;;;;5074286;28;20191;-60
2022/07/08 07:01:17;;;;;;;1999.90;999.90;;;22.10;1.00;;;;;;5074284;28;20202;-60
2022/07/08 07:03:44;;;;;;;1999.90;999.90;;;22.20;1.00;;;;;;5074222;28;20187;-61
2022/07/08 07:06:11;;;;;;;1999.90;999.90;;;22.80;99.90;;;;;;5073860;28;20203;-61
2022/07/08 07:08:38;;;;;;;1999.90;999.90;;;22.50;99.90;;;;;;5073771;28;20194;-61
2022/07/08 07:11:06;;;;;;;1999.90;999.90;;;23.00;99.90;;;;;;5074114;28;20201;-61
2022/07/08 07:13:33;;;;;;;1999.90;999.90;;;23.30;99.90;;;;;;5073708;28;20199;-61
2022/07/08 07:16:00;;;;;;;1999.90;999.90;;;23.70;99.90;;;;;;5073381;28;20226;-60
2022/07/08 07:18:28;;;;;;;1999.90;999.90;;;23.80;99.90;;;;;;5073867;28;20199;-60
2022/07/08 07:20:55;;;;;;;1999.90;999.90;;;24.40;99.90;;;;;;5073369;28;20203;-62
2022/07/08 07:23:22;;;;;;;1999.90;999.90;;;24.00;99.90;;;;;;5073789;28;20205;-62
2022/07/08 07:25:49;;;;;;;1999.90;999.90;;;24.40;47.90;;;;;;5073469;28;20199;-62
2022/07/08 07:28:16;;;;;;;1999.90;999.90;;;24.20;1.00;;;;;;5073427;28;20275;-62
2022/07/08 07:30:44;;;;;;;1999.90;999.90;;;23.80;1.00;;;;;;5073583;28;20217;-62
2022/07/08 07:33:11;;;;;;;1999.90;999.90;;;24.00;1.00;;;;;;5073667;28;20194;-62
2022/07/08 07:35:39;;;;;;;1999.90;999.90;;;24.90;1.00;;;;;;5073223;28;20272;-62
2022/07/08 07:38:06;;;;;;;1999.90;999.90;;;25.10;1.00;;;;;;5073082;28;20562;-62
2022/07/08 07:40:33;;;;;;;1999.90;999.90;;;25.10;1.00;;;;;;5073136;28;20198;-62
2022/07/08 07:43:01;;;;;;;1999.90;999.90;;;25.40;1.00;;;;;;5073443;28;20206;-62
2022/07/08 07:45:28;;;;;;;1999.90;999.90;;;25.10;1.00;;;;;;5073350;28;20209;-62
2022/07/08 07:47:55;;;;;;;1999.90;999.90;;;25.80;1.00;;;;;;5073351;28;20197;-62
2022/07/08 07:50:22;;;;;;;1999.90;999.90;;;25.50;1.00;;;;;;5073177;28;20230;-62
2022/07/08 07:52:51;;;;;;;1999.90;999.90;;;25.20;1.00;;;;;;5072850;28;20195;-62
2022/07/08 07:55:18;;;;;;;1999.90;999.90;;;24.70;1.00;;;;;;5073207;28;20555;-62
2022/07/08 07:57:46;;;;;;;1999.90;999.90;;;23.80;1.00;;;;;;5072848;28;20199;-62
2022/07/08 08:00:15;;;;;;;1999.90;999.90;;;23.70;1.00;;;;;;5072765;28;20210;-62
2022/07/08 08:02:42;;;;;;;1999.90;999.90;;;23.30;1.00;;;;;;5072765;28;20203;-61
2022/07/08 08:05:10;;;;;;;1999.90;999.90;;;24.00;1.00;;;;;;5072731;28;20225;-61
2022/07/08 08:07:37;;;;;;;1999.90;999.90;;;23.30;1.00;;;;;;5072683;28;20691;-61
2022/07/08 08:10:07;;;;;;;1999.90;999.90;;;22.30;1.00;;;;;;5072805;28;20207;-61
2022/07/08 08:12:35;;;;;;;1999.90;999.90;;;21.70;1.00;;;;;;5072948;28;20199;-62
2022/07/08 08:15:02;;;;;;;1999.90;999.90;;;21.70;1.00;;;;;;5072306;28;20238;-61
2022/07/08 08:17:29;;;;;;;1999.90;999.90;;;22.40;1.00;;;;;;5072106;28;20240;-61
2022/07/08 08:19:56;;;;;;;1999.90;999.90;;;23.60;99.90;;;;;;5071978;28;20244;-61
2022/07/08 08:22:23;;;;;;;1999.90;999.90;;;23.90;99.90;;;;;;5071714;28;20198;-61
2022/07/08 08:24:50;;;;;;;1999.90;999.90;;;23.80;99.90;;;;;;5071676;28;20197;-62
2022/07/08 08:27:19;;;;;;;1999.90;999.90;;;23.60;99.90;;;;;;5071689;28;20206;-62
2022/07/08 08:29:46;;;;;;;1999.90;999.90;;;22.90;1.00;;;;;;5071492;28;20683;-62
2022/07/08 08:32:13;;;;;;;1999.90;999.90;;;22.80;1.00;;;;;;5071839;28;20195;-61
2022/07/08 08:34:40;;;;;;;1999.90;999.90;;;23.60;99.90;;;;;;5071877;28;20203;-61
2022/07/08 08:37:07;;;;;;;1999.90;999.90;;;22.60;1.00;;;;;;5071468;28;20255;-62
2022/07/08 08:39:34;;;;;;;1999.90;999.90;;;21.60;1.00;;;;;;5071304;28;20186;-62
2022/07/08 08:42:01;;;;;;;1999.90;999.90;;;21.60;1.00;;;;;;5071929;28;20652;-62
2022/07/08 08:44:30;;;;;;;1999.90;999.90;;;21.90;1.00;;;;;;5071670;28;20194;-62
2022/07/08 08:46:58;;;;;;;1999.90;999.90;;;22.20;99.90;;;;;;5071352;28;20203;-62
2022/07/08 08:49:29;;;;;;;1999.90;999.90;;;22.60;99.90;;;;;;5071411;28;20218;-62
2022/07/08 08:51:56;;;;;;;1999.90;999.90;;;23.30;99.90;;;;;;5070346;28;20529;-62
2022/07/08 08:54:25;;;;;;;1999.90;999.90;;;24.00;99.90;;;;;;5071618;28;20197;-62
2022/07/08 08:56:53;;;;;;;1999.90;999.90;;;24.10;99.90;;;;;;5071548;28;20199;-62
2022/07/08 08:59:20;;;;;;;1999.90;999.90;;;24.00;99.90;;;;;;5071553;28;20191;-62
2022/07/08 09:01:49;;;;;;;1999.90;999.90;;;24.60;99.90;;;;;;5071697;28;20203;-62
2022/07/08 09:04:17;;;;;;;1999.90;999.90;;;25.30;99.90;;;;;;5071360;28;20195;-62
2022/07/08 09:06:44;;;;;;;1999.90;999.90;;;25.50;99.90;;;;;;5071462;28;20202;-62
2022/07/08 09:09:11;;;;;;;1999.90;999.90;;;26.10;99.90;;;;;;5071124;28;20556;-62
2022/07/08 09:11:40;;;;;;;1999.90;999.90;;;26.50;99.90;;;;;;5070982;28;20577;-62
2022/07/08 09:14:18;;;;;;;1999.90;999.90;;;26.80;99.90;;;;;;5070998;28;20691;-62
2022/07/08 09:17:10;;;;;;;1999.90;999.90;;;26.10;99.90;;;;;;5027703;28;1266004;-62
2022/07/08 09:19:37;;;;;;;1999.90;999.90;;;26.30;99.90;;;;;;5072283;28;20180;-62
2022/07/08 09:22:06;;;;;;;1999.90;999.90;;;26.80;99.90;;;;;;5072106;28;20191;-62
2022/07/08 09:24:33;;;;;;;1999.90;999.90;;;26.10;99.90;;;;;;5072155;28;20198;-62
2022/07/08 09:27:03;;;;;;;1999.90;999.90;;;25.90;99.90;;;;;;5071906;28;20191;-62
2022/07/08 09:29:30;;;;;;;1999.90;999.90;;;24.80;99.90;;;;;;5071711;28;20215;-61
2022/07/08 09:32:11;;;;;;;1999.90;999.90;;;24.60;99.90;;;;;;5072168;28;20201;-62
2022/07/08 09:34:38;;;;;;;1999.90;999.90;;;25.00;99.90;;;;;;5071839;28;20702;-61
2022/07/08 09:37:11;;;;;;;1999.90;999.90;;;25.80;99.90;;;;;;5071768;28;20676;-62
2022/07/08 09:39:38;;;;;;;1999.90;999.90;;;26.60;99.90;;;;;;5071601;28;20189;-62
2022/07/08 09:42:07;;;;;;;1999.90;999.90;;;25.80;99.90;;;;;;5071706;28;20187;-62
2022/07/08 09:44:34;;;;;;;1999.90;999.90;;;26.70;99.90;;;;;;5071924;28;20210;-62
2022/07/08 09:47:08;;;;;;;1999.90;999.90;;;26.80;99.90;;;;;;5071988;28;20195;-61
2022/07/08 09:49:39;;;;;;;1999.90;999.90;;;26.60;99.90;;;;;;5071606;28;20534;-61
2022/07/08 09:52:06;;;;;;;1999.90;999.90;;;26.20;99.90;;;;;;5071632;28;20570;-62
2022/07/08 09:54:33;;;;;;;1999.90;999.90;;;26.50;99.90;;;;;;5071557;28;20205;-62
2022/07/08 09:57:01;;;;;;;1999.90;999.90;;;27.20;99.90;;;;;;5071834;28;20198;-62
2022/07/08 09:59:29;;;;;;;1999.90;999.90;;;26.70;99.90;;;;;;5071509;28;20242;-62
2022/07/08 10:01:56;;;;;;;1999.90;999.90;;;26.60;99.90;;;;;;5072533;28;20537;-61
2022/07/08 10:04:24;;;;;;;1999.90;999.90;;;26.30;99.90;;;;;;5075078;28;20191;-61
2022/07/08 10:06:53;;;;;;;1999.90;999.90;;;26.50;99.90;;;;;;5074934;28;20221;-61
2022/07/08 10:09:22;;;;;;;1999.90;999.90;;;27.10;99.90;;;;;;5075316;28;20197;-62
2022/07/08 10:11:50;;;;;;;1999.90;999.90;;;27.20;99.90;;;;;;5075262;28;20201;-62
2022/07/08 10:14:18;;;;;;;1999.90;999.90;;;27.60;99.90;;;;;;5074900;28;20404;-62
2022/07/08 10:16:48;;;;;;;1999.90;999.90;;;27.70;99.90;;;;;;5074737;28;20235;-60
2022/07/08 10:19:18;;;;;;;1999.90;999.90;;;27.60;99.90;;;;;;5075342;28;20195;-61
2022/07/08 10:21:50;;;;;;;1999.90;999.90;;;27.60;99.90;;;;;;5075033;28;20183;-61
2022/07/08 10:24:23;;;;;;;1999.90;999.90;;;27.30;99.90;;;;;;5074694;28;20179;-60
2022/07/08 10:26:50;;;;;;;1999.90;999.90;;;27.50;99.90;;;;;;5074980;28;20179;-60
2022/07/08 10:29:17;;;;;;;1999.90;999.90;;;27.30;99.90;;;;;;5075128;28;20203;-61
2022/07/08 10:31:47;;;;;;;1999.90;999.90;;;27.20;99.90;;;;;;5074907;28;20213;-61
2022/07/08 10:34:18;;;;;;;1999.90;999.90;;;27.40;99.90;;;;;;5074832;28;20199;-60
2022/07/08 10:36:50;;;;;;;1999.90;999.90;;;27.20;99.90;;;;;;5074391;28;20194;-61
2022/07/08 10:39:26;;;;;;;1999.90;999.90;;;28.00;99.90;;;;;;5074490;28;20699;-61
2022/07/08 10:42:01;;;;;;;1999.90;999.90;;;27.40;99.90;;;;;;5074466;28;20182;-62
2022/07/08 10:44:50;;;;;;;1999.90;999.90;;;26.80;99.90;;;;;;5074715;28;20247;-61
2022/07/08 10:47:19;;;;;;;1999.90;999.90;;;27.20;99.90;;;;;;5074226;28;20191;-61
2022/07/08 10:49:47;;;;;;;1999.90;999.90;;;27.20;99.90;;;;;;5074135;28;20692;-61
2022/07/08 10:52:15;;;;;;;1999.90;999.90;;;27.60;99.90;;;;;;5074397;28;20199;-61
2022/07/08 10:54:44;;;;;;;1999.90;999.90;;;27.20;99.90;;;;;;5074416;28;20198;-61
2022/07/08 10:57:18;;;;;;;1999.90;999.90;;;26.90;99.90;;;;;;5074077;28;20687;-61
2022/07/08 11:00:06;;;;;;;1999.90;999.90;;;27.40;99.90;;;;;;5074062;28;20198;-61
2022/07/08 11:02:33;;;;;;;1999.90;999.90;;;27.20;99.90;;;;;;5074524;28;20183;-61
2022/07/08 11:05:00;;;;;;;1999.90;999.90;;;27.60;99.90;;;;;;5073919;28;20191;-62
2022/07/08 11:07:29;;;;;;;1999.90;999.90;;;27.70;99.90;;;;;;5073850;28;20205;-61
2022/07/08 11:10:03;;;;;;;1999.90;999.90;;;27.40;99.90;;;;;;5073918;28;20199;-61
2022/07/08 11:12:32;;;;;;;1999.90;999.90;;;26.70;99.90;;;;;;5073699;28;20205;-61
2022/07/08 11:15:01;;;;;;;1999.90;999.90;;;26.80;99.90;;;;;;5072719;28;20233;-61
2022/07/08 11:17:29;;;;;;;1999.90;999.90;;;27.30;99.90;;;;;;5073951;28;20195;-62
2022/07/08 11:19:59;;;;;;;1999.90;999.90;;;27.30;99.90;;;;;;5074241;28;20211;-61
2022/07/08 11:22:28;;;;;;;1999.90;999.90;;;27.30;99.90;;;;;;5074091;28;20241;-61
2022/07/08 11:24:56;;;;;;;1999.90;999.90;;;26.20;99.90;;;;;;5073607;28;20599;-61
2022/07/08 11:27:26;;;;;;;1999.90;999.90;;;26.10;99.90;;;;;;5073754;28;20240;-61
2022/07/08 11:29:55;;;;;;;1999.90;999.90;;;26.20;99.90;;;;;;5073366;28;20198;-61
2022/07/08 11:32:24;;;;;;;1999.90;999.90;;;25.80;99.90;;;;;;5073655;28;20199;-61
2022/07/08 11:34:52;;;;;;;1999.90;999.90;;;26.30;99.90;;;;;;5073581;28;20199;-61
2022/07/08 11:37:20;;;;;;;1999.90;999.90;;;26.50;99.90;;;;;;5073217;28;20209;-61
2022/07/08 11:39:47;;;;;;;1999.90;999.90;;;26.10;99.90;;;;;;5073124;28;20690;-62
2022/07/08 11:42:15;;;;;;;1999.90;999.90;;;26.80;99.90;;;;;;5073229;28;20195;-61
2022/07/08 11:44:44;;;;;;;1999.90;999.90;;;27.80;99.90;;;;;;5073102;28;20198;-61
2022/07/08 11:47:14;;;;;;;1999.90;999.90;;;28.10;99.90;;;;;;5073057;28;20199;-61
2022/07/08 11:49:43;;;;;;;1999.90;999.90;;;28.40;99.90;;;;;;5073097;28;20532;-62
2022/07/08 11:52:11;;;;;;;1999.90;999.90;;;27.90;99.90;;;;;;5072955;28;20679;-62
2022/07/08 11:54:38;;;;;;;1999.90;999.90;;;27.70;99.90;;;;;;5073290;28;20201;-62
2022/07/08 11:57:06;;;;;;;1999.90;999.90;;;28.50;99.90;;;;;;5073106;28;20207;-62
2022/07/08 11:59:34;;;;;;;1999.90;999.90;;;28.70;99.90;;;;;;5073179;28;20325;-62
2022/07/08 12:02:05;;;;;;;1999.90;999.90;;;28.80;99.90;;;;;;5073114;28;20201;-61
2022/07/08 12:04:32;;;;;;;1999.90;999.90;;;29.00;99.90;;;;;;5073022;28;20214;-61
2022/07/08 12:07:01;;;;;;;1999.90;999.90;;;29.40;99.90;;;;;;5073001;28;20264;-61
2022/07/08 12:09:29;;;;;;;1999.90;999.90;;;29.80;99.90;;;;;;5072842;28;20199;-62